createdAt,value
2023-05-18T00:01:14.654Z,102620.50
2023-05-18T00:03:42.328Z,102616.97
2023-05-18T00:06:10.222Z,102608.75
2023-05-18T00:08:37.935Z,102607.53
2023-05-18T00:11:05.858Z,102615.31
2023-05-18T00:13:32.636Z,102608.25
2023-05-18T00:15:59.481Z,102601.31
2023-05-18T00:18:26.672Z,102607.13
2023-05-18T00:21:00.512Z,102601.00
2023-05-18T00:23:32.853Z,102608.69
2023-05-18T00:26:00.766Z,102604.84
2023-05-18T00:28:27.975Z,102614.38
2023-05-18T00:30:55.138Z,102608.38
2023-05-18T00:33:22.555Z,102608.69
2023-05-18T00:35:49.600Z,102618.44
2023-05-18T00:38:19.520Z,102611.38
2023-05-18T00:40:46.340Z,102612.00
2023-05-18T00:43:12.838Z,102614.09
2023-05-18T00:45:39.595Z,102610.88
2023-05-18T00:48:07.269Z,102612.94
2023-05-18T00:50:34.779Z,102607.34
2023-05-18T00:53:01.599Z,102611.19
2023-05-18T00:55:28.795Z,102617.00
2023-05-18T00:57:57.306Z,102612.84
2023-05-18T01:00:24.527Z,102605.78
2023-05-18T01:02:51.765Z,102609.22
2023-05-18T01:05:20.127Z,102609.72
2023-05-18T01:07:47.993Z,102617.63
2023-05-18T01:10:17.453Z,102615.72
2023-05-18T01:13:02.861Z,102623.31
2023-05-18T01:15:35.762Z,102615.72
2023-05-18T01:18:22.017Z,102626.72
2023-05-18T01:20:59.514Z,102620.59
2023-05-18T01:23:58.466Z,102621.75
2023-05-18T01:26:30.228Z,102627.06
2023-05-18T01:29:00.061Z,102621.34
2023-05-18T01:31:27.490Z,102613.34
2023-05-18T01:33:54.942Z,102617.91
2023-05-18T01:36:21.655Z,102625.06
2023-05-18T01:38:48.757Z,102623.59
2023-05-18T01:41:27.046Z,102621.59
2023-05-18T01:44:17.948Z,102620.78
2023-05-18T01:47:13.028Z,102627.31
2023-05-18T01:49:53.419Z,102627.31
2023-05-18T01:52:33.178Z,102627.63
2023-05-18T01:55:04.648Z,102624.91
2023-05-18T01:57:36.378Z,102624.47
2023-05-18T02:00:07.705Z,102626.34
2023-05-18T02:02:43.029Z,102620.84
2023-05-18T02:05:12.487Z,102623.16
2023-05-18T02:07:40.359Z,102627.59
2023-05-18T02:10:08.909Z,102621.59
2023-05-18T02:12:35.862Z,102624.06
2023-05-18T02:15:05.586Z,102615.97
2023-05-18T02:17:38.253Z,102621.06
2023-05-18T02:20:07.425Z,102616.19
2023-05-18T02:22:34.675Z,102617.13
2023-05-18T02:25:02.507Z,102616.69
2023-05-18T02:27:29.196Z,102613.38
2023-05-18T02:29:56.744Z,102606.53
2023-05-18T02:32:23.876Z,102604.19
2023-05-18T02:34:53.833Z,102594.41
2023-05-18T02:37:23.054Z,102600.69
2023-05-18T02:39:50.334Z,102605.75
2023-05-18T02:42:17.034Z,102601.25
2023-05-18T02:44:43.895Z,102592.03
2023-05-18T02:47:14.117Z,102604.06
2023-05-18T02:49:41.150Z,102601.19
2023-05-18T02:52:08.977Z,102610.50
2023-05-18T02:54:35.978Z,102607.75
2023-05-18T02:57:04.572Z,102592.03
2023-05-18T02:59:44.315Z,102600.03
2023-05-18T03:02:14.435Z,102594.59
2023-05-18T03:04:41.847Z,102601.09
2023-05-18T03:07:10.465Z,102605.44
2023-05-18T03:09:38.011Z,102601.28
2023-05-18T03:12:05.512Z,102599.72
2023-05-18T03:14:32.301Z,102594.94
2023-05-18T03:16:58.981Z,102600.56
2023-05-18T03:19:27.422Z,102597.03
2023-05-18T03:21:54.391Z,102604.81
2023-05-18T03:24:21.532Z,102603.81
2023-05-18T03:26:50.018Z,102595.13
2023-05-18T03:29:16.774Z,102596.88
2023-05-18T03:31:43.853Z,102599.19
2023-05-18T03:34:12.190Z,102601.47
2023-05-18T03:36:39.024Z,102581.72
2023-05-18T03:39:08.562Z,102605.38
2023-05-18T03:41:35.858Z,102601.50
2023-05-18T03:44:02.838Z,102604.84
2023-05-18T03:46:30.957Z,102610.94
2023-05-18T03:48:58.004Z,102611.16
2023-05-18T03:51:34.142Z,102607.91
2023-05-18T03:54:01.870Z,102610.59
2023-05-18T03:56:31.179Z,102613.09
2023-05-18T03:58:58.653Z,102613.59
2023-05-18T04:01:25.622Z,102602.06
2023-05-18T04:03:56.325Z,102613.53
2023-05-18T04:06:23.816Z,102611.84
2023-05-18T04:08:50.479Z,102614.28
2023-05-18T04:11:17.506Z,102613.72
2023-05-18T04:13:44.222Z,102620.81
2023-05-18T04:16:13.641Z,102622.56
2023-05-18T04:18:41.549Z,102627.22
2023-05-18T04:21:09.032Z,102623.41
2023-05-18T04:23:39.176Z,102616.88
2023-05-18T04:26:06.898Z,102628.69
2023-05-18T04:28:33.613Z,102629.31
2023-05-18T04:31:01.812Z,102624.13
2023-05-18T04:33:32.721Z,102631.63
2023-05-18T04:36:04.813Z,102629.84
2023-05-18T04:38:34.464Z,102637.16
2023-05-18T04:41:07.277Z,102635.09
2023-05-18T04:43:36.556Z,102634.72
2023-05-18T04:46:04.069Z,102640.25
2023-05-18T04:48:32.895Z,102631.53
2023-05-18T04:51:04.642Z,102638.75
2023-05-18T04:53:33.315Z,102643.63
2023-05-18T04:56:03.012Z,102644.25
2023-05-18T04:58:30.691Z,102647.25
2023-05-18T05:00:57.577Z,102644.81
2023-05-18T05:03:24.361Z,102643.31
2023-05-18T05:05:51.026Z,102649.06
2023-05-18T05:08:17.640Z,102652.09
2023-05-18T05:10:44.898Z,102647.50
2023-05-18T05:13:11.756Z,102645.53
2023-05-18T05:15:40.049Z,102650.69
2023-05-18T05:18:06.824Z,102643.44
2023-05-18T05:20:34.331Z,102637.31
2023-05-18T05:23:01.252Z,102643.03
2023-05-18T05:25:29.126Z,102640.34
2023-05-18T05:27:56.298Z,102635.81
2023-05-18T05:30:23.753Z,102643.31
2023-05-18T05:32:50.680Z,102646.69
2023-05-18T05:35:17.267Z,102643.06
2023-05-18T05:37:45.202Z,102644.03
2023-05-18T05:40:12.307Z,102648.16
2023-05-18T05:42:44.247Z,102645.72
2023-05-18T05:45:12.119Z,102645.56
2023-05-18T05:47:50.688Z,102647.16
2023-05-18T05:50:19.972Z,102640.59
2023-05-18T05:52:49.439Z,102645.28
2023-05-18T05:55:17.014Z,102635.69
2023-05-18T05:57:43.691Z,102634.03
2023-05-18T06:00:14.282Z,102643.66
2023-05-18T06:02:58.738Z,102641.72
2023-05-18T06:05:35.169Z,102640.22
2023-05-18T06:08:02.962Z,102644.81
2023-05-18T06:10:29.645Z,102638.53
2023-05-18T06:12:56.361Z,102635.13
2023-05-18T06:15:28.408Z,102652.88
2023-05-18T06:17:55.425Z,102652.44
2023-05-18T06:20:22.330Z,102647.94
2023-05-18T06:22:49.501Z,102651.06
2023-05-18T06:25:24.408Z,102650.63
2023-05-18T06:28:03.619Z,102648.34
2023-05-18T06:30:47.073Z,102658.53
2023-05-18T06:33:23.752Z,102662.69
2023-05-18T06:35:51.323Z,102655.94
2023-05-18T06:38:18.216Z,102660.31
2023-05-18T06:40:45.384Z,102650.06
2023-05-18T06:43:12.363Z,102656.47
2023-05-18T06:45:46.901Z,102654.88
2023-05-18T06:48:20.227Z,102662.22
2023-05-18T06:50:47.423Z,102664.81
2023-05-18T06:53:14.476Z,102657.97
2023-05-18T06:55:41.288Z,102671.41
2023-05-18T06:58:08.026Z,102664.00
2023-05-18T07:00:35.818Z,102673.31
2023-05-18T07:03:03.516Z,102671.97
2023-05-18T07:05:30.700Z,102681.44
2023-05-18T07:07:57.741Z,102668.88
2023-05-18T07:10:24.528Z,102664.44
2023-05-18T07:12:53.639Z,102675.09
2023-05-18T07:15:20.361Z,102672.72
2023-05-18T07:17:46.964Z,102684.34
2023-05-18T07:20:14.220Z,102681.22
2023-05-18T07:22:41.116Z,102678.88
2023-05-18T07:25:08.375Z,102669.78
2023-05-18T07:27:34.952Z,102681.13
2023-05-18T07:30:01.783Z,102676.03
2023-05-18T07:32:28.665Z,102687.47
2023-05-18T07:34:55.418Z,102684.72
2023-05-18T07:37:22.195Z,102691.94
2023-05-18T07:39:48.812Z,102690.19
2023-05-18T07:42:15.457Z,102690.28
2023-05-18T07:44:42.171Z,102699.06
2023-05-18T07:47:08.937Z,102693.44
2023-05-18T07:49:35.893Z,102698.00
2023-05-18T07:52:02.634Z,102683.28
2023-05-18T07:54:29.231Z,102696.72
2023-05-18T07:56:58.535Z,102692.44
2023-05-18T07:59:26.602Z,102699.41
2023-05-18T08:01:53.496Z,102703.13
2023-05-18T08:04:20.118Z,102702.69
2023-05-18T08:06:46.734Z,102703.34
2023-05-18T08:09:13.327Z,102707.69
2023-05-18T08:11:40.050Z,102698.41
2023-05-18T08:14:06.745Z,102699.13
2023-05-18T08:16:37.267Z,102696.75
2023-05-18T08:19:04.244Z,102695.09
2023-05-18T08:21:30.822Z,102688.91
2023-05-18T08:23:57.477Z,102689.13
2023-05-18T08:26:24.612Z,102688.75
2023-05-18T08:28:51.649Z,102695.38
2023-05-18T08:31:18.484Z,102685.81
2023-05-18T08:33:45.377Z,102695.41
2023-05-18T08:36:12.364Z,102694.94
2023-05-18T08:38:39.042Z,102686.97
2023-05-18T08:41:15.357Z,102684.28
2023-05-18T08:43:45.827Z,102680.81
2023-05-18T08:46:28.516Z,102684.31
2023-05-18T08:48:58.242Z,102675.38
2023-05-18T08:51:29.576Z,102672.41
2023-05-18T08:53:56.891Z,102679.84
2023-05-18T08:56:24.855Z,102681.63
2023-05-18T08:58:56.272Z,102661.75
2023-05-18T09:01:28.419Z,102674.09
2023-05-18T09:03:59.845Z,102672.13
2023-05-18T09:06:28.322Z,102670.31
2023-05-18T09:08:59.768Z,102664.72
2023-05-18T09:11:27.873Z,102671.66
2023-05-18T09:13:54.988Z,102662.34
2023-05-18T09:16:21.728Z,102666.31
2023-05-18T09:18:48.548Z,102658.69
2023-05-18T09:21:15.274Z,102666.19
2023-05-18T09:23:42.367Z,102668.97
2023-05-18T09:26:13.340Z,102675.03
2023-05-18T09:28:42.601Z,102661.41
2023-05-18T09:31:12.775Z,102668.94
2023-05-18T09:33:40.191Z,102653.25
2023-05-18T09:36:08.701Z,102643.28
2023-05-18T09:38:43.214Z,102656.09
2023-05-18T09:41:11.365Z,102658.25
2023-05-18T09:43:38.724Z,102656.56
2023-05-18T09:46:09.161Z,102655.13
2023-05-18T09:48:37.379Z,102652.34
2023-05-18T09:51:07.718Z,102651.63
2023-05-18T09:53:39.645Z,102656.31
2023-05-18T09:56:11.794Z,102633.25
2023-05-18T09:58:39.860Z,102641.41
2023-05-18T10:01:06.672Z,102634.41
2023-05-18T10:03:39.188Z,102636.38
2023-05-18T10:06:08.861Z,102633.59
2023-05-18T10:08:37.197Z,102643.75
2023-05-18T10:11:04.391Z,102638.75
2023-05-18T10:13:32.799Z,102644.56
2023-05-18T10:16:04.868Z,102640.31
2023-05-18T10:18:38.547Z,102634.72
2023-05-18T10:21:09.885Z,102635.97
2023-05-18T10:23:37.271Z,102636.03
2023-05-18T10:26:09.706Z,102618.06
2023-05-18T10:28:45.157Z,102608.00
2023-05-18T10:31:16.206Z,102606.84
2023-05-18T10:33:44.617Z,102617.41
2023-05-18T10:36:11.515Z,102607.25
2023-05-18T10:38:43.499Z,102610.19
2023-05-18T10:41:12.295Z,102608.06
2023-05-18T10:43:41.654Z,102620.91
2023-05-18T10:46:09.785Z,102619.78
2023-05-18T10:48:42.892Z,102612.50
2023-05-18T10:51:10.800Z,102619.41
2023-05-18T10:53:39.503Z,102615.81
2023-05-18T10:56:07.875Z,102602.97
2023-05-18T10:58:36.996Z,102595.41
2023-05-18T11:01:09.338Z,102594.75
2023-05-18T11:03:39.611Z,102599.72
2023-05-18T11:06:08.770Z,102591.53
2023-05-18T11:08:46.506Z,102595.78
2023-05-18T11:11:15.066Z,102593.47
2023-05-18T11:13:46.378Z,102591.13
2023-05-18T11:16:14.780Z,102589.81
2023-05-18T11:18:51.684Z,102595.09
2023-05-18T11:21:24.394Z,102590.50
2023-05-18T11:24:19.142Z,102600.31
2023-05-18T11:26:58.174Z,102588.81
2023-05-18T11:29:32.506Z,102585.53
2023-05-18T11:31:59.323Z,102583.94
2023-05-18T11:34:45.590Z,102586.66
2023-05-18T11:37:34.168Z,102578.63
2023-05-18T11:40:03.508Z,102583.72
2023-05-18T11:42:34.908Z,102574.59
2023-05-18T11:45:09.576Z,102581.97
2023-05-18T11:47:38.058Z,102571.53
2023-05-18T11:50:07.983Z,102568.63
2023-05-18T11:52:48.406Z,102570.38
2023-05-18T11:55:17.306Z,102574.03
2023-05-18T11:57:47.583Z,102571.78
2023-05-18T12:00:18.390Z,102561.06
2023-05-18T12:02:48.345Z,102570.25
2023-05-18T12:05:16.096Z,102566.13
2023-05-18T12:07:44.972Z,102561.88
2023-05-18T12:10:17.140Z,102552.50
2023-05-18T12:12:47.548Z,102560.72
2023-05-18T12:15:16.462Z,102562.03
2023-05-18T12:17:48.731Z,102564.50
2023-05-18T12:20:19.819Z,102554.81
2023-05-18T12:22:52.526Z,102553.47
2023-05-18T12:25:21.218Z,102548.41
2023-05-18T12:27:48.668Z,102554.94
2023-05-18T12:30:16.166Z,102553.97
2023-05-18T12:33:04.363Z,102551.69
2023-05-18T12:35:33.252Z,102547.41
2023-05-18T12:38:00.881Z,102559.91
2023-05-18T12:40:28.664Z,102555.28
2023-05-18T12:42:58.221Z,102558.94
2023-05-18T12:45:31.546Z,102553.31
2023-05-18T12:48:08.786Z,102544.44
2023-05-18T12:50:37.212Z,102550.03
2023-05-18T12:53:04.211Z,102540.66
2023-05-18T12:55:33.338Z,102539.03
2023-05-18T12:58:07.213Z,102547.06
2023-05-18T13:00:37.650Z,102553.25
2023-05-18T13:03:10.277Z,102545.91
2023-05-18T13:05:47.147Z,102552.25
2023-05-18T13:08:23.167Z,102549.63
2023-05-18T13:10:58.381Z,102541.63
2023-05-18T13:13:28.541Z,102527.00
2023-05-18T13:15:55.433Z,102526.81
2023-05-18T13:18:22.160Z,102521.22
2023-05-18T13:20:57.026Z,102531.19
2023-05-18T13:23:26.512Z,102534.06
2023-05-18T13:25:53.049Z,102525.47
2023-05-18T13:28:21.836Z,102526.16
2023-05-18T13:30:50.366Z,102519.31
2023-05-18T13:33:19.263Z,102513.97
2023-05-18T13:35:47.283Z,102520.16
2023-05-18T13:38:17.956Z,102519.72
2023-05-18T13:40:46.397Z,102516.47
2023-05-18T13:43:14.022Z,102522.19
2023-05-18T13:45:41.950Z,102513.53
2023-05-18T13:48:10.748Z,102511.88
2023-05-18T13:50:41.116Z,102494.63
2023-05-18T13:53:07.729Z,102506.72
2023-05-18T13:55:35.566Z,102495.31
2023-05-18T13:58:02.710Z,102499.19
2023-05-18T14:00:33.176Z,102498.88
2023-05-18T14:03:00.380Z,102494.28
2023-05-18T14:05:27.044Z,102485.97
2023-05-18T14:07:53.702Z,102486.09
2023-05-18T14:10:20.886Z,102485.03
2023-05-18T14:12:47.495Z,102486.75
2023-05-18T14:15:14.987Z,102490.66
2023-05-18T14:17:42.996Z,102487.00
2023-05-18T14:20:10.814Z,102490.16
2023-05-18T14:22:37.476Z,102486.03
2023-05-18T14:25:04.507Z,102482.34
2023-05-18T14:27:31.987Z,102471.19
2023-05-18T14:29:58.646Z,102472.00
2023-05-18T14:32:25.547Z,102473.34
2023-05-18T14:34:55.365Z,102472.13
2023-05-18T14:37:22.271Z,102469.72
2023-05-18T14:39:48.839Z,102480.16
2023-05-18T14:42:16.297Z,102472.84
2023-05-18T14:44:43.227Z,102465.00
2023-05-18T14:47:10.563Z,102463.75
2023-05-18T14:49:37.729Z,102462.91
2023-05-18T14:52:04.636Z,102468.91
2023-05-18T14:54:31.260Z,102469.41
2023-05-18T14:56:58.113Z,102463.53
2023-05-18T14:59:25.068Z,102459.53
2023-05-18T15:01:52.352Z,102455.88
2023-05-18T15:04:20.162Z,102446.09
2023-05-18T15:06:47.058Z,102457.16
2023-05-18T15:09:14.967Z,102454.50
2023-05-18T15:11:42.088Z,102450.47
2023-05-18T15:14:08.837Z,102453.78
2023-05-18T15:16:36.013Z,102449.72
2023-05-18T15:19:04.358Z,102454.88
2023-05-18T15:21:31.103Z,102461.72
2023-05-18T15:23:57.743Z,102444.56
2023-05-18T15:26:25.104Z,102449.72
2023-05-18T15:28:51.834Z,102446.09
2023-05-18T15:31:18.597Z,102447.63
2023-05-18T15:33:47.812Z,102453.03
2023-05-18T15:36:14.517Z,102442.91
2023-05-18T15:38:41.197Z,102446.78
2023-05-18T15:41:08.002Z,102449.72
2023-05-18T15:43:36.646Z,102435.91
2023-05-18T15:46:03.714Z,102437.28
2023-05-18T15:48:30.934Z,102431.59
2023-05-18T15:50:57.569Z,102436.94
2023-05-18T15:53:24.229Z,102437.66
2023-05-18T15:55:57.379Z,102427.91
2023-05-18T15:58:25.456Z,102427.72
2023-05-18T16:00:52.241Z,102425.34
2023-05-18T16:03:19.262Z,102421.53
2023-05-18T16:05:46.088Z,102422.72
2023-05-18T16:08:12.823Z,102416.56
2023-05-18T16:10:39.698Z,102425.22
2023-05-18T16:13:06.421Z,102428.22
2023-05-18T16:15:34.306Z,102418.41
2023-05-18T16:18:01.586Z,102422.16
2023-05-18T16:20:28.527Z,102418.19
2023-05-18T16:22:55.654Z,102431.44
2023-05-18T16:25:22.463Z,102415.97
2023-05-18T16:27:49.361Z,102416.72
2023-05-18T16:30:18.717Z,102419.16
2023-05-18T16:32:45.949Z,102412.47
2023-05-18T16:35:14.477Z,102402.69
2023-05-18T16:37:43.619Z,102417.94
2023-05-18T16:40:10.690Z,102407.78
2023-05-18T16:42:37.370Z,102402.69
2023-05-18T16:45:04.409Z,102423.56
2023-05-18T16:47:32.980Z,102420.59
2023-05-18T16:50:01.013Z,102417.94
2023-05-18T16:52:27.919Z,102424.91
2023-05-18T16:54:54.632Z,102407.88
2023-05-18T16:57:27.293Z,102414.00
2023-05-18T16:59:54.775Z,102407.41
2023-05-18T17:02:21.635Z,102405.19
2023-05-18T17:04:49.787Z,102406.38
2023-05-18T17:07:17.061Z,102404.34
2023-05-18T17:09:44.251Z,102407.09
2023-05-18T17:12:11.560Z,102400.66
2023-05-18T17:14:42.622Z,102390.94
2023-05-18T17:17:09.658Z,102403.22
2023-05-18T17:19:38.882Z,102406.88
2023-05-18T17:22:06.140Z,102391.94
2023-05-18T17:24:34.161Z,102403.69
2023-05-18T17:27:01.537Z,102394.31
2023-05-18T17:29:28.894Z,102405.81
2023-05-18T17:31:56.396Z,102408.88
2023-05-18T17:34:23.353Z,102406.13
2023-05-18T17:36:50.066Z,102414.16
2023-05-18T17:39:16.941Z,102408.50
2023-05-18T17:41:45.479Z,102405.25
2023-05-18T17:44:16.388Z,102402.41
2023-05-18T17:46:46.415Z,102401.25
2023-05-18T17:49:13.796Z,102399.78
2023-05-18T17:51:40.586Z,102398.13
2023-05-18T17:54:07.584Z,102398.69
2023-05-18T17:56:35.311Z,102399.34
2023-05-18T17:59:03.146Z,102403.03
2023-05-18T18:01:30.670Z,102396.53
2023-05-18T18:03:58.187Z,102409.13
2023-05-18T18:06:25.431Z,102408.69
2023-05-18T18:08:55.876Z,102407.41
2023-05-18T18:11:23.495Z,102404.97
2023-05-18T18:13:51.041Z,102410.34
2023-05-18T18:16:19.141Z,102400.31
2023-05-18T18:18:46.400Z,102395.09
2023-05-18T18:21:13.876Z,102402.66
2023-05-18T18:23:40.631Z,102399.59
2023-05-18T18:26:07.938Z,102399.75
2023-05-18T18:28:35.222Z,102397.78
2023-05-18T18:31:02.265Z,102402.06
2023-05-18T18:33:29.233Z,102409.63
2023-05-18T18:35:57.543Z,102399.97
2023-05-18T18:38:26.946Z,102408.19
2023-05-18T18:40:57.751Z,102413.28
2023-05-18T18:43:25.946Z,102409.81
2023-05-18T18:45:52.612Z,102417.34
2023-05-18T18:48:21.376Z,102412.06
2023-05-18T18:50:48.490Z,102423.41
2023-05-18T18:53:15.351Z,102430.34
2023-05-18T18:55:42.125Z,102419.50
2023-05-18T18:58:08.776Z,102417.47
2023-05-18T19:00:35.705Z,102424.03
2023-05-18T19:03:02.614Z,102419.66
2023-05-18T19:05:30.945Z,102423.91
2023-05-18T19:07:57.784Z,102417.31
2023-05-18T19:10:25.373Z,102425.13
2023-05-18T19:12:52.566Z,102425.59
2023-05-18T19:15:21.378Z,102434.28
2023-05-18T19:17:53.328Z,102428.06
2023-05-18T19:20:20.810Z,102433.78
2023-05-18T19:22:47.453Z,102438.78
2023-05-18T19:25:14.177Z,102441.28
2023-05-18T19:27:40.783Z,102429.78
2023-05-18T19:30:08.505Z,102437.84
2023-05-18T19:32:35.206Z,102446.09
2023-05-18T19:35:01.908Z,102447.06
2023-05-18T19:37:28.499Z,102440.88
2023-05-18T19:39:55.231Z,102439.47
2023-05-18T19:42:21.843Z,102446.41
2023-05-18T19:44:48.510Z,102442.91
2023-05-18T19:47:15.187Z,102443.09
2023-05-18T19:49:42.058Z,102452.38
2023-05-18T19:52:10.469Z,102449.25
2023-05-18T19:54:37.725Z,102452.00
2023-05-18T19:57:04.471Z,102458.88
2023-05-18T19:59:31.640Z,102458.28
2023-05-18T20:01:59.404Z,102451.31
2023-05-18T20:04:28.398Z,102453.53
2023-05-18T20:06:59.439Z,102459.06
2023-05-18T20:09:29.851Z,102458.63
2023-05-18T20:11:56.704Z,102447.75
2023-05-18T20:14:23.849Z,102461.69
2023-05-18T20:16:55.640Z,102459.47
2023-05-18T20:19:22.818Z,102464.88
2023-05-18T20:21:52.731Z,102467.56
2023-05-18T20:24:19.709Z,102444.09
2023-05-18T20:26:46.442Z,102472.81
2023-05-18T20:29:13.207Z,102476.53
2023-05-18T20:31:40.442Z,102476.44
2023-05-18T20:34:07.279Z,102483.88
2023-05-18T20:36:35.923Z,102481.66
2023-05-18T20:39:02.715Z,102481.00
2023-05-18T20:41:29.655Z,102487.31
2023-05-18T20:43:57.301Z,102485.53
2023-05-18T20:46:25.084Z,102482.38
2023-05-18T20:48:55.059Z,102486.53
2023-05-18T20:51:23.273Z,102482.09
2023-05-18T20:53:50.465Z,102475.94
2023-05-18T20:56:21.766Z,102482.09
2023-05-18T20:58:50.071Z,102467.94
2023-05-18T21:01:16.924Z,102478.53
2023-05-18T21:03:45.502Z,102483.06
2023-05-18T21:06:15.501Z,102486.25
2023-05-18T21:08:45.324Z,102481.69
2023-05-18T21:11:12.002Z,102484.03
2023-05-18T21:13:38.732Z,102481.69
2023-05-18T21:16:09.435Z,102478.13
2023-05-18T21:18:37.280Z,102487.31
2023-05-18T21:21:03.976Z,102481.69
2023-05-18T21:23:30.773Z,102483.47
2023-05-18T21:25:57.571Z,102478.28
2023-05-18T21:28:25.044Z,102486.38
2023-05-18T21:30:52.648Z,102492.97
2023-05-18T21:33:19.704Z,102485.69
2023-05-18T21:35:46.456Z,102487.34
2023-05-18T21:38:13.130Z,102479.63
2023-05-18T21:40:43.662Z,102483.47
2023-05-18T21:43:12.761Z,102485.69
2023-05-18T21:45:39.624Z,102490.34
2023-05-18T21:48:06.958Z,102491.16
2023-05-18T21:50:36.546Z,102488.97
2023-05-18T21:53:03.786Z,102485.09
2023-05-18T21:55:31.722Z,102486.72
2023-05-18T21:57:58.781Z,102488.91
2023-05-18T22:00:26.796Z,102481.19
2023-05-18T22:02:53.529Z,102483.66
2023-05-18T22:05:20.506Z,102494.75
2023-05-18T22:07:47.415Z,102497.38
2023-05-18T22:10:14.082Z,102491.69
2023-05-18T22:12:45.705Z,102497.00
2023-05-18T22:15:13.432Z,102498.88
2023-05-18T22:17:40.297Z,102491.03
2023-05-18T22:20:09.101Z,102500.34
2023-05-18T22:22:35.845Z,102491.88
2023-05-18T22:25:02.518Z,102497.19
2023-05-18T22:27:29.240Z,102494.47
2023-05-18T22:29:56.062Z,102487.56
2023-05-18T22:32:24.002Z,102496.66
2023-05-18T22:34:51.001Z,102493.88
2023-05-18T22:37:17.874Z,102502.41
2023-05-18T22:39:44.599Z,102484.78
2023-05-18T22:42:11.285Z,102494.66
2023-05-18T22:44:39.330Z,102488.09
2023-05-18T22:47:07.531Z,102493.44
2023-05-18T22:49:35.858Z,102476.78
2023-05-18T22:52:06.705Z,102489.44
2023-05-18T22:54:33.665Z,102483.75
2023-05-18T22:57:00.433Z,102482.63
2023-05-18T22:59:28.573Z,102482.66
2023-05-18T23:01:55.720Z,102475.63
2023-05-18T23:04:22.394Z,102489.47
2023-05-18T23:06:49.789Z,102491.09
2023-05-18T23:09:17.108Z,102477.16
2023-05-18T23:11:51.086Z,102480.59
2023-05-18T23:14:19.936Z,102475.59
2023-05-18T23:16:49.156Z,102476.41
2023-05-18T23:19:18.494Z,102488.69
2023-05-18T23:21:45.853Z,102483.50
2023-05-18T23:24:12.879Z,102480.19
2023-05-18T23:26:46.308Z,102476.84
2023-05-18T23:29:13.080Z,102483.97
2023-05-18T23:31:39.719Z,102482.88
2023-05-18T23:34:06.827Z,102481.00
2023-05-18T23:36:37.117Z,102478.75
2023-05-18T23:39:04.153Z,102475.78
2023-05-18T23:41:31.913Z,102475.13
2023-05-18T23:43:58.861Z,102476.56
2023-05-18T23:46:26.140Z,102475.31
2023-05-18T23:48:53.490Z,102482.94
2023-05-18T23:51:20.915Z,102474.41
2023-05-18T23:53:49.924Z,102470.59
2023-05-18T23:56:17.283Z,102478.94
2023-05-18T23:58:45.853Z,102481.75
